Time;durP1;ratioP1;P1;durP2;ratioP2;P2;SDS_P1;SDS_P2;PMS_P1;PMS_P2;Temp;Humidity;BMP_temperature;BMP_pressure;BME280_temperature;BME280_humidity;BME280_pressure;Samples;Min_cycle;Max_cycle;Signal;HPM_P1;HPM_P2
2023/01/19 00:01:42;;;;;;;13.98;8.02;;;3.00;64.60;;;-2.28;94.93;94466.09;4988136;28;20049;-51
2023/01/19 00:04:10;;;;;;;15.88;8.63;;;3.00;64.50;;;-2.35;94.76;94466.13;4971495;28;20022;-55
2023/01/19 00:06:36;;;;;;;11.95;8.23;;;3.00;64.50;;;-2.38;94.70;94466.56;4969936;28;20029;-55
2023/01/19 00:09:03;;;;;;;14.77;7.68;;;2.90;64.40;;;-2.40;94.96;94470.38;4972610;28;20026;-50
2023/01/19 00:11:32;;;;;;;14.65;8.32;;;2.90;64.40;;;-2.40;95.05;94476.41;4985028;28;20034;-52
2023/01/19 00:14:03;;;;;;;14.05;8.25;;;2.90;64.40;;;-2.42;94.89;94475.00;4955839;28;20518;-53
2023/01/19 00:16:29;;;;;;;14.65;8.25;;;2.90;64.40;;;-2.44;94.26;94470.00;4960350;28;20053;-50
2023/01/19 00:19:02;;;;;;;13.15;7.63;;;2.90;64.40;;;-2.49;93.37;94476.84;4986439;28;20512;-51
2023/01/19 00:21:43;;;;;;;12.45;7.45;;;2.80;64.30;;;-2.53;93.37;94473.88;4973867;28;20065;-50
2023/01/19 00:24:15;;;;;;;11.95;7.03;;;2.80;64.30;;;-2.62;93.04;94475.94;4980997;28;20042;-52
2023/01/19 00:26:44;;;;;;;11.80;7.53;;;2.70;64.30;;;-2.74;93.33;94477.59;4940233;28;20037;-51
2023/01/19 00:29:13;;;;;;;12.07;7.32;;;2.70;64.30;;;-2.81;92.98;94476.84;4984688;28;20037;-50
2023/01/19 00:31:42;;;;;;;11.68;6.88;;;2.60;64.10;;;-2.85;93.38;94476.47;4951030;28;20069;-51
2023/01/19 00:34:10;;;;;;;13.82;7.10;;;2.50;64.10;;;-2.90;93.30;94485.91;4967854;28;20050;-50
2023/01/19 00:36:36;;;;;;;12.07;7.13;;;2.50;64.10;;;-2.95;93.41;94485.72;4970895;28;20038;-55
2023/01/19 00:39:02;;;;;;;12.93;7.63;;;2.40;64.00;;;-3.04;94.04;94477.31;4966330;28;20099;-54
2023/01/19 00:44:18;;;;;;;13.35;7.65;;;2.30;64.00;;;-3.13;94.29;94483.81;4971103;28;20029;-53
2023/01/19 00:46:44;;;;;;;12.27;7.35;;;2.20;64.00;;;-3.17;93.83;94482.59;4984118;28;20473;-54
2023/01/19 00:49:12;;;;;;;12.38;6.70;;;2.10;64.00;;;-3.26;94.32;94482.84;4968775;28;20019;-52
2023/01/19 00:51:41;;;;;;;12.50;7.15;;;2.10;64.00;;;-3.31;94.37;94474.84;4964242;28;20034;-55
2023/01/19 00:54:10;;;;;;;13.90;7.50;;;2.00;64.10;;;-3.33;94.46;94481.25;4976824;28;20025;-55
2023/01/19 00:56:39;;;;;;;13.18;7.82;;;2.00;64.10;;;-3.41;94.52;94477.06;4991565;28;20056;-53
2023/01/19 00:59:04;;;;;;;13.45;7.85;;;1.90;64.10;;;-3.44;94.43;94477.47;4970317;28;20109;-53
2023/01/19 01:01:31;;;;;;;13.23;7.82;;;1.90;64.10;;;-3.49;94.69;94483.28;4975614;28;20129;-51
2023/01/19 01:04:03;;;;;;;12.10;7.35;;;1.90;64.30;;;-3.47;95.15;94482.31;4975148;28;20026;-53
2023/01/19 01:06:29;;;;;;;13.80;7.88;;;1.80;64.30;;;-3.49;95.09;94490.31;4968986;28;20100;-53
2023/01/19 01:08:54;;;;;;;14.18;7.43;;;1.80;64.30;;;-3.53;95.16;94489.91;4967948;28;20076;-55
2023/01/19 01:11:26;;;;;;;13.77;7.88;;;1.70;64.30;;;-3.55;95.73;94488.50;4974543;28;20132;-53
2023/01/19 01:13:52;;;;;;;11.68;7.05;;;1.70;64.40;;;-3.58;95.62;94484.50;4963452;28;20052;-54
2023/01/19 01:16:18;;;;;;;13.57;7.18;;;1.70;64.40;;;-3.61;94.96;94486.72;4975664;28;20117;-52
2023/01/19 01:18:43;;;;;;;13.75;7.47;;;1.70;64.50;;;-3.67;95.27;94488.31;4978880;28;20020;-51
2023/01/19 01:21:11;;;;;;;15.07;8.48;;;1.60;65.10;;;-3.73;95.59;94495.16;4973107;28;20061;-52
2023/01/19 01:23:40;;;;;;;12.80;7.78;;;1.60;64.30;;;-3.78;95.47;94494.16;4973881;28;20026;-51
2023/01/19 01:26:09;;;;;;;16.55;8.50;;;1.50;64.30;;;-3.84;95.60;94495.78;4984471;28;20026;-54
2023/01/19 01:28:37;;;;;;;12.77;8.23;;;1.50;64.30;;;-3.87;95.57;94493.56;4980703;28;20034;-51
2023/01/19 01:31:04;;;;;;;15.40;8.60;;;1.50;64.40;;;-3.94;95.16;94494.59;4967495;28;20077;-50
2023/01/19 01:33:29;;;;;;;14.05;7.70;;;1.40;64.30;;;-4.01;95.75;94503.19;4962916;28;20040;-50
2023/01/19 01:35:55;;;;;;;16.55;7.50;;;1.40;64.40;;;-4.09;95.46;94508.59;4981750;28;20484;-50
2023/01/19 01:38:21;;;;;;;15.25;7.88;;;1.30;64.30;;;-4.18;95.75;94509.78;4948849;28;20130;-55
2023/01/19 01:40:47;;;;;;;13.90;8.25;;;1.30;64.20;;;-4.28;96.91;94512.78;4970825;28;20049;-55
2023/01/19 01:43:16;;;;;;;13.15;8.30;;;1.20;64.20;;;-4.33;97.22;94509.97;4962831;28;20443;-52
2023/01/19 01:45:48;;;;;;;16.52;8.02;;;1.10;64.20;;;-4.39;97.69;94504.75;4970182;28;20443;-51
2023/01/19 01:48:29;;;;;;;16.23;7.70;;;1.10;64.20;;;-4.46;98.35;94512.53;4960393;28;20027;-53
2023/01/19 01:51:24;;;;;;;25.55;8.63;;;1.00;64.30;;;-4.51;99.04;94513.16;4949590;28;20737;-52
2023/01/19 01:54:30;;;;;;;16.55;7.80;;;1.00;64.30;;;-4.52;98.68;94515.94;4976374;28;20057;-52
2023/01/19 01:57:07;;;;;;;14.40;7.60;;;0.90;64.40;;;-4.59;98.13;94515.91;4969461;28;20587;-50
2023/01/19 01:59:44;;;;;;;16.45;8.95;;;0.80;65.20;;;-4.68;98.19;94522.28;4968782;28;20030;-51
2023/01/19 02:02:50;;;;;;;15.82;7.68;;;0.70;64.40;;;-4.80;97.34;94509.06;4994135;23;20060;-54
2023/01/19 02:05:56;;;;;;;20.42;8.52;;;0.60;64.40;;;-4.95;97.98;94517.03;4973943;28;20129;-50
2023/01/19 02:14:29;;;;;;;17.05;7.97;;;0.30;64.40;;;-5.29;98.12;94525.66;4970232;28;20033;-52
2023/01/19 02:16:58;;;;;;;18.05;8.65;;;0.20;64.40;;;-5.42;99.56;94529.00;4970887;28;20038;-55
2023/01/19 02:19:41;;;;;;;19.88;9.02;;;0.10;64.50;;;-5.43;100.00;94524.78;4952585;28;20105;-51
2023/01/19 02:22:39;;;;;;;17.42;8.50;;;0.10;64.70;;;-5.47;99.36;94526.16;4969738;28;20810;-52
2023/01/19 02:25:07;;;;;;;18.17;8.65;;;0.00;64.70;;;-5.53;99.02;94518.34;4968639;28;20026;-49
2023/01/19 02:27:36;;;;;;;17.90;8.25;;;-0.10;64.70;;;-5.62;99.37;94523.66;4937444;28;20026;-55
2023/01/19 02:30:11;;;;;;;19.40;9.23;;;-0.20;64.80;;;-5.67;100.00;94526.06;4952854;28;20480;-49
2023/01/19 02:32:37;;;;;;;16.38;9.27;;;-0.20;64.90;;;-5.71;99.73;94524.00;4985708;28;20041;-50
2023/01/19 02:35:05;;;;;;;17.40;8.80;;;-0.20;64.90;;;-5.78;100.00;94525.78;4970009;28;20022;-50
2023/01/19 02:37:39;;;;;;;14.75;8.27;;;-0.30;65.00;;;-5.78;100.00;94526.56;4937252;28;20152;-52
2023/01/19 02:40:12;;;;;;;20.70;8.77;;;-0.30;65.10;;;-5.82;100.00;94530.53;4954138;28;20029;-52
2023/01/19 02:42:50;;;;;;;17.05;8.73;;;-0.30;65.20;;;-5.82;100.00;94531.34;4964348;28;20038;-54
2023/01/19 02:45:21;;;;;;;21.13;9.18;;;-0.40;65.30;;;-5.84;100.00;94525.53;4969737;28;20029;-52
2023/01/19 02:47:51;;;;;;;16.00;8.67;;;-0.40;65.30;;;-5.84;100.00;94532.50;4952412;28;20045;-52
2023/01/19 02:50:50;;;;;;;16.60;8.77;;;-0.50;65.30;;;-5.86;100.00;94527.53;4984364;28;20127;-51
2023/01/19 02:53:40;;;;;;;14.93;7.45;;;-0.50;65.50;;;-5.90;100.00;94539.25;4953403;28;20048;-51
2023/01/19 02:56:41;;;;;;;16.75;9.27;;;-0.50;65.50;;;-5.93;100.00;94542.25;4959489;28;20192;-51
2023/01/19 02:59:42;;;;;;;20.25;8.70;;;-0.60;65.50;;;-5.95;100.00;94538.25;4957353;28;20824;-49
2023/01/19 03:03:01;;;;;;;15.20;8.43;;;-0.60;65.50;;;-5.97;100.00;94537.63;4985154;28;20056;-50
2023/01/19 03:06:10;;;;;;;22.30;9.30;;;-0.60;65.70;;;-5.98;100.00;94546.41;4960774;28;20030;-51
2023/01/19 03:09:28;;;;;;;18.40;8.80;;;-0.70;65.80;;;-5.96;100.00;94553.00;4989298;28;20034;-52
2023/01/19 03:13:03;;;;;;;22.23;10.43;;;-0.60;66.00;;;-5.93;100.00;94562.19;4991736;28;20014;-53
2023/01/19 03:16:19;;;;;;;19.42;9.77;;;-0.60;66.10;;;-5.86;100.00;94555.22;4953476;28;20033;-51
2023/01/19 03:19:22;;;;;;;20.20;10.93;;;-0.60;66.30;;;-5.84;100.00;94559.25;4986248;28;20029;-52
2023/01/19 03:22:04;;;;;;;24.98;11.52;;;-0.60;66.30;;;-5.77;100.00;94551.50;4974487;28;20489;-53
2023/01/19 03:24:39;;;;;;;20.83;10.32;;;-0.50;66.50;;;-5.74;100.00;94548.53;4991137;28;20121;-53
2023/01/19 03:27:30;;;;;;;23.40;11.18;;;-0.50;66.60;;;-5.65;100.00;94552.59;4960525;28;20396;-50
2023/01/19 03:30:33;;;;;;;22.25;11.45;;;-0.40;66.80;;;-5.55;100.00;94548.88;4991066;28;20033;-49
2023/01/19 03:33:22;;;;;;;23.17;11.03;;;-0.30;66.90;;;-5.44;100.00;94558.72;4989487;28;20038;-56
2023/01/19 03:35:56;;;;;;;19.73;10.60;;;-0.20;66.90;;;-5.38;100.00;94556.16;4991688;28;20037;-51
2023/01/19 03:38:27;;;;;;;20.08;10.43;;;-0.20;66.80;;;-5.33;100.00;94554.78;4991595;28;20479;-50
2023/01/19 03:41:01;;;;;;;16.30;9.10;;;-0.10;66.80;;;-5.32;100.00;94554.59;4975576;28;20088;-51
2023/01/19 03:43:30;;;;;;;19.65;10.45;;;0.00;66.70;;;-5.32;100.00;94552.00;4975841;28;20074;-48
2023/01/19 03:46:02;;;;;;;19.67;9.88;;;0.00;66.60;;;-5.29;100.00;94548.25;4989172;28;20129;-50
2023/01/19 03:48:38;;;;;;;20.98;10.70;;;0.00;66.50;;;-5.30;100.00;94555.19;4990171;28;20030;-49
2023/01/19 03:51:10;;;;;;;21.13;9.45;;;0.00;66.30;;;-5.31;100.00;94558.00;4975844;28;20084;-51
2023/01/19 03:53:36;;;;;;;18.00;9.68;;;0.00;66.20;;;-5.38;100.00;94558.75;4990695;28;20456;-49
2023/01/19 03:56:24;;;;;;;22.27;9.75;;;0.00;66.20;;;-5.40;100.00;94567.72;4993338;28;20080;-48
2023/01/19 03:58:54;;;;;;;17.75;9.85;;;0.00;66.20;;;-5.46;100.00;94574.47;4988458;28;20388;-48
2023/01/19 04:01:21;;;;;;;18.67;9.68;;;-0.10;66.10;;;-5.46;100.00;94568.50;4983002;28;20046;-54
2023/01/19 04:03:51;;;;;;;22.17;10.68;;;-0.10;66.10;;;-5.51;100.00;94570.88;4990761;28;20030;-50
2023/01/19 04:06:20;;;;;;;16.90;9.77;;;-0.10;66.30;;;-5.52;100.00;94570.03;4986315;28;20026;-50
2023/01/19 04:08:51;;;;;;;21.15;9.90;;;-0.10;66.30;;;-5.53;100.00;94578.84;4990494;28;20049;-50
2023/01/19 04:11:20;;;;;;;20.05;10.13;;;-0.20;66.20;;;-5.51;100.00;94573.47;4972473;28;20040;-54
2023/01/19 04:13:45;;;;;;;15.00;8.77;;;-0.10;66.30;;;-5.54;100.00;94573.84;4974823;28;20022;-48
2023/01/19 04:16:19;;;;;;;20.30;8.52;;;-0.20;66.10;;;-5.65;100.00;94569.97;4973155;28;20014;-50
2023/01/19 04:18:49;;;;;;;18.17;9.48;;;-0.20;66.10;;;-5.72;100.00;94582.09;4990191;28;20547;-48
2023/01/19 04:21:15;;;;;;;22.05;9.93;;;-0.30;66.00;;;-5.76;100.00;94571.28;4991209;28;20033;-51
2023/01/19 04:23:48;;;;;;;19.73;9.80;;;-0.30;66.10;;;-5.81;100.00;94573.63;4972985;28;20049;-50
2023/01/19 04:26:15;;;;;;;20.13;9.95;;;-0.40;66.20;;;-5.85;100.00;94573.22;4955105;28;20041;-54
2023/01/19 04:28:47;;;;;;;20.75;10.32;;;-0.40;66.10;;;-5.92;100.00;94572.38;4980240;28;20389;-51
2023/01/19 04:31:13;;;;;;;21.00;9.82;;;-0.50;66.10;;;-5.93;100.00;94573.38;4983671;28;20485;-50
2023/01/19 04:33:42;;;;;;;21.73;9.80;;;-0.50;66.10;;;-5.95;100.00;94579.75;4968559;28;20044;-49
2023/01/19 04:36:14;;;;;;;17.27;8.82;;;-0.60;66.10;;;-6.04;100.00;94579.06;4989934;28;20025;-49
2023/01/19 04:38:40;;;;;;;19.52;8.90;;;-0.60;66.00;;;-6.11;100.00;94576.44;4990519;28;20072;-52
2023/01/19 04:41:05;;;;;;;18.70;8.60;;;-0.70;66.00;;;-6.16;100.00;94581.34;4985482;28;20061;-53
2023/01/19 04:43:31;;;;;;;18.42;9.18;;;-0.70;66.00;;;-6.22;100.00;94579.50;4988155;28;20524;-49
2023/01/19 04:46:03;;;;;;;24.25;9.80;;;-0.80;66.10;;;-6.30;100.00;94580.44;4991526;28;20376;-52
2023/01/19 04:48:32;;;;;;;20.00;9.73;;;-0.80;66.10;;;-6.37;100.00;94584.75;4988526;28;20041;-51
2023/01/19 04:50:58;;;;;;;22.08;9.60;;;-0.90;66.00;;;-6.42;100.00;94587.09;4989950;28;20029;-51
2023/01/19 04:53:58;;;;;;;19.17;9.95;;;-0.90;66.10;;;-6.45;100.00;94584.88;4972398;28;20953;-54
2023/01/19 04:56:34;;;;;;;22.63;9.52;;;-1.00;66.10;;;-6.48;100.00;94595.59;4973772;28;20381;-48
2023/01/19 04:59:00;;;;;;;20.85;9.95;;;-1.10;66.00;;;-6.53;100.00;94598.72;4972824;28;20025;-55
2023/01/19 05:01:30;;;;;;;19.02;9.50;;;-1.10;66.10;;;-6.60;100.00;94592.69;4988058;28;20431;-52
2023/01/19 05:03:59;;;;;;;21.10;9.57;;;-1.10;66.20;;;-6.62;100.00;94601.63;4982439;28;20033;-51
2023/01/19 05:06:32;;;;;;;23.42;10.23;;;-1.20;66.20;;;-6.69;100.00;94604.13;4968876;28;20044;-50
2023/01/19 05:08:58;;;;;;;20.63;10.35;;;-1.20;66.20;;;-6.71;100.00;94600.13;4972908;28;20026;-55
2023/01/19 05:11:24;;;;;;;24.65;11.13;;;-1.20;66.30;;;-6.70;100.00;94602.53;4988082;28;20033;-54
2023/01/19 05:13:50;;;;;;;20.95;10.48;;;-1.30;66.30;;;-6.73;100.00;94605.50;4990893;28;20026;-51
2023/01/19 05:16:16;;;;;;;17.48;10.15;;;-1.30;66.40;;;-6.70;100.00;94606.94;4990962;28;20084;-53
2023/01/19 05:18:42;;;;;;;22.17;10.52;;;-1.30;66.50;;;-6.67;100.00;94606.56;4989126;28;20560;-49
2023/01/19 05:21:08;;;;;;;26.35;11.93;;;-1.30;66.60;;;-6.62;100.00;94606.81;4990055;28;20037;-51
2023/01/19 05:23:34;;;;;;;25.65;11.88;;;-1.20;66.80;;;-6.55;100.00;94615.44;4989600;28;20036;-50
2023/01/19 05:26:03;;;;;;;26.08;12.25;;;-1.20;67.00;;;-6.47;100.00;94607.56;4990575;28;20101;-48
2023/01/19 05:28:36;;;;;;;32.10;12.68;;;-1.10;67.30;;;-6.38;100.00;94611.66;4990146;28;20387;-54
2023/01/19 05:31:03;;;;;;;25.55;12.40;;;-1.10;67.40;;;-6.29;100.00;94613.16;4988017;28;20025;-54
2023/01/19 05:33:29;;;;;;;30.52;11.73;;;-1.00;67.40;;;-6.20;100.00;94616.44;4988486;28;20037;-51
2023/01/19 05:35:55;;;;;;;23.55;11.75;;;-0.90;67.60;;;-6.13;100.00;94619.88;4989228;28;20018;-49
2023/01/19 05:38:29;;;;;;;25.90;11.90;;;-0.90;67.50;;;-6.06;100.00;94625.13;4985214;28;20129;-52
2023/01/19 05:40:58;;;;;;;23.23;11.45;;;-0.80;67.50;;;-6.02;100.00;94623.75;4988156;28;20021;-50
2023/01/19 05:43:24;;;;;;;25.27;11.35;;;-0.80;67.50;;;-5.96;100.00;94628.19;4984173;28;20049;-49
2023/01/19 05:45:51;;;;;;;27.13;11.70;;;-0.70;67.50;;;-5.91;100.00;94628.44;4990468;28;20357;-49
2023/01/19 05:48:16;;;;;;;23.92;11.00;;;-0.60;67.60;;;-5.84;100.00;94631.06;4987389;28;20033;-53
2023/01/19 05:50:42;;;;;;;24.85;11.75;;;-0.60;67.60;;;-5.76;100.00;94619.78;4972514;28;20026;-49
2023/01/19 05:53:08;;;;;;;25.13;12.40;;;-0.50;67.60;;;-5.66;100.00;94626.25;4858197;28;20042;-53
2023/01/19 05:55:34;;;;;;;27.63;12.45;;;-0.40;67.70;;;-5.58;100.00;94620.09;4969247;28;20029;-51
2023/01/19 05:58:00;;;;;;;24.02;11.70;;;-0.30;67.80;;;-5.52;100.00;94624.53;4989541;28;20091;-50
2023/01/19 06:00:26;;;;;;;22.83;10.43;;;-0.20;67.80;;;-5.50;100.00;94621.78;4971290;28;20032;-52
2023/01/19 06:02:53;;;;;;;22.25;10.55;;;-0.20;67.60;;;-5.49;100.00;94618.19;4988710;28;20022;-49
2023/01/19 06:05:21;;;;;;;20.10;10.23;;;-0.20;67.50;;;-5.48;100.00;94619.81;4969566;28;20026;-49
2023/01/19 06:07:47;;;;;;;19.50;10.50;;;-0.20;67.30;;;-5.52;100.00;94623.75;4971707;28;20076;-52
2023/01/19 06:10:13;;;;;;;28.80;11.00;;;-0.20;67.20;;;-5.60;100.00;94635.88;4986088;28;20029;-48
2023/01/19 06:12:40;;;;;;;20.73;10.48;;;-0.20;67.00;;;-5.68;100.00;94628.22;4971226;28;20121;-51
2023/01/19 06:15:10;;;;;;;28.08;10.10;;;-0.20;66.90;;;-5.71;100.00;94636.38;4969019;28;20088;-51
2023/01/19 06:17:42;;;;;;;23.83;10.95;;;-0.30;66.80;;;-5.74;100.00;94633.34;4983343;28;20084;-48
2023/01/19 06:20:12;;;;;;;20.65;10.45;;;-0.30;66.70;;;-5.76;100.00;94632.75;4984406;28;20602;-48
2023/01/19 06:22:41;;;;;;;19.58;10.75;;;-0.30;66.80;;;-5.85;100.00;94637.25;4944866;28;20033;-49
2023/01/19 06:25:08;;;;;;;22.20;10.30;;;-0.40;66.70;;;-5.90;100.00;94635.22;4984492;28;20041;-52
2023/01/19 06:27:35;;;;;;;34.38;11.43;;;-0.40;66.70;;;-5.86;100.00;94641.66;4969405;28;20021;-49
2023/01/19 06:30:05;;;;;;;23.25;10.40;;;-0.40;66.70;;;-5.89;100.00;94646.38;4985599;28;20014;-48
2023/01/19 06:32:31;;;;;;;19.20;10.77;;;-0.50;66.80;;;-5.94;100.00;94649.56;4983980;28;20034;-50
2023/01/19 06:35:06;;;;;;;24.05;10.82;;;-0.50;66.80;;;-5.97;100.00;94652.53;4977604;28;20026;-48
2023/01/19 06:37:33;;;;;;;20.50;10.23;;;-0.50;66.90;;;-5.96;100.00;94656.72;4970310;28;20449;-47
2023/01/19 06:39:59;;;;;;;25.80;11.55;;;-0.50;67.00;;;-5.92;100.00;94657.13;4988614;28;20468;-49
2023/01/19 06:42:25;;;;;;;24.30;11.30;;;-0.50;67.10;;;-5.89;100.00;94660.19;4986397;28;20041;-48
2023/01/19 06:44:51;;;;;;;24.83;10.48;;;-0.50;67.10;;;-5.87;100.00;94657.38;4983720;28;20037;-48
2023/01/19 06:47:17;;;;;;;24.20;11.15;;;-0.50;67.10;;;-5.87;100.00;94662.56;4983849;28;20030;-51
2023/01/19 06:49:43;;;;;;;25.85;12.27;;;-0.50;67.00;;;-5.93;100.00;94660.75;4988447;28;20036;-53
2023/01/19 06:52:14;;;;;;;26.70;11.88;;;-0.50;66.90;;;-5.97;100.00;94667.31;4987089;28;20060;-50
2023/01/19 06:54:42;;;;;;;24.15;11.10;;;-0.50;66.90;;;-6.02;100.00;94670.44;4981360;28;20017;-49
2023/01/19 06:57:12;;;;;;;30.30;12.77;;;-0.60;66.70;;;-6.04;100.00;94679.41;4986950;28;20044;-49
2023/01/19 06:59:44;;;;;;;21.52;10.77;;;-0.60;66.70;;;-6.10;100.00;94678.34;4982858;28;20025;-48
2023/01/19 07:02:10;;;;;;;24.93;11.60;;;-0.60;66.70;;;-6.17;100.00;94680.88;4980594;28;20115;-48
2023/01/19 07:04:36;;;;;;;24.55;11.15;;;-0.70;67.20;;;-6.24;100.00;94689.56;4987211;28;20034;-53
2023/01/19 07:07:02;;;;;;;26.65;11.80;;;-0.70;66.50;;;-6.33;100.00;94679.31;4983028;28;20484;-48
2023/01/19 07:09:30;;;;;;;22.83;11.52;;;-0.80;66.40;;;-6.40;100.00;94685.38;4981375;28;20026;-53
2023/01/19 07:11:56;;;;;;;24.27;11.60;;;-0.80;66.40;;;-6.44;100.00;94687.53;4970215;28;20535;-54
2023/01/19 07:14:22;;;;;;;22.65;10.25;;;-0.80;66.40;;;-6.44;100.00;94697.91;4988435;28;20030;-49
2023/01/19 07:16:48;;;;;;;23.05;11.38;;;-0.90;66.40;;;-6.43;100.00;94699.50;4988083;28;20032;-56
2023/01/19 07:19:16;;;;;;;27.92;11.48;;;-0.90;66.40;;;-6.48;100.00;94701.84;4954182;28;20030;-50
2023/01/19 07:21:45;;;;;;;41.55;16.67;;;-0.90;66.50;;;-6.50;100.00;94698.63;4988697;28;20025;-48
2023/01/19 07:24:11;;;;;;;37.75;17.40;;;-0.90;66.60;;;-6.48;100.00;94701.84;4985902;28;20022;-48
2023/01/19 07:26:36;;;;;;;38.60;15.88;;;-0.90;66.70;;;-6.42;100.00;94700.34;4970948;28;20487;-51
2023/01/19 07:29:02;;;;;;;35.80;15.60;;;-0.90;66.90;;;-6.35;100.00;94701.19;4986109;28;20030;-51
2023/01/19 07:31:28;;;;;;;37.08;15.80;;;-0.80;67.10;;;-6.30;100.00;94701.44;4969160;28;20030;-50
2023/01/19 07:33:54;;;;;;;43.95;16.98;;;-0.80;67.10;;;-6.26;100.00;94704.50;4988108;28;20034;-49
2023/01/19 07:36:22;;;;;;;40.42;17.33;;;-0.70;67.20;;;-6.27;100.00;94711.44;4987237;28;20022;-50
2023/01/19 07:38:48;;;;;;;33.58;15.23;;;-0.70;67.10;;;-6.29;100.00;94710.84;4986494;28;20029;-52
2023/01/19 07:41:14;;;;;;;33.10;15.02;;;-0.60;67.10;;;-6.23;100.00;94717.09;4969550;28;20079;-49
2023/01/19 07:43:40;;;;;;;30.58;13.25;;;-0.60;67.10;;;-6.16;100.00;94715.38;4966811;28;20504;-48
2023/01/19 07:46:09;;;;;;;35.25;13.95;;;-0.60;67.10;;;-6.12;100.00;94714.03;4987066;28;20460;-49
2023/01/19 07:48:38;;;;;;;24.95;11.98;;;-0.50;67.00;;;-6.09;100.00;94717.03;4969626;28;20026;-48
2023/01/19 07:51:10;;;;;;;32.72;13.52;;;-0.50;67.00;;;-6.09;100.00;94721.44;4988317;28;20030;-49
2023/01/19 07:53:40;;;;;;;27.73;12.45;;;-0.50;66.90;;;-6.11;100.00;94716.44;4987226;28;20029;-54
2023/01/19 07:56:13;;;;;;;28.02;12.55;;;-0.40;66.90;;;-6.07;100.00;94720.28;4988969;28;20037;-52
2023/01/19 07:58:51;;;;;;;;;;;-0.40;66.80;;;-6.05;100.00;94717.47;4990697;28;20531;-55
2023/01/19 08:01:17;;;;;;;22.33;11.13;;;-0.30;66.70;;;-6.00;100.00;94722.94;4970072;28;19918;-52
2023/01/19 08:03:43;;;;;;;25.90;11.63;;;-0.30;66.60;;;-5.98;100.00;94730.53;4983577;28;20058;-53
2023/01/19 08:06:25;;;;;;;22.13;11.63;;;-0.20;66.70;;;-5.88;100.00;94726.63;4980872;28;20034;-53
2023/01/19 08:08:52;;;;;;;29.63;12.70;;;-0.20;66.90;;;-5.84;100.00;94743.41;4967972;28;20030;-52
2023/01/19 08:11:18;;;;;;;21.98;10.35;;;-0.10;66.80;;;-5.72;100.00;94724.78;4952387;28;20080;-56
2023/01/19 08:13:46;;;;;;;21.92;10.93;;;0.00;66.80;;;-5.67;100.00;94728.44;4987606;28;20104;-54
2023/01/19 08:16:15;;;;;;;20.70;10.18;;;0.10;66.70;;;-5.59;100.00;94736.09;4968957;28;20046;-53
2023/01/19 08:18:41;;;;;;;18.45;9.55;;;0.20;66.60;;;-5.56;100.00;94734.13;4982672;28;20060;-51
2023/01/19 08:21:07;;;;;;;21.63;10.02;;;0.30;66.50;;;-5.52;100.00;94733.53;4982737;28;20753;-54
2023/01/19 08:23:33;;;;;;;17.15;8.45;;;0.40;66.30;;;-5.48;100.00;94739.19;4985581;28;20115;-56
2023/01/19 08:25:59;;;;;;;22.88;10.98;;;0.50;66.10;;;-5.42;100.00;94738.44;4954963;28;20548;-52
2023/01/19 08:28:25;;;;;;;21.00;9.07;;;0.60;66.80;;;-5.36;100.00;94737.69;4971974;28;20030;-53
2023/01/19 08:30:54;;;;;;;17.88;9.55;;;0.80;65.90;;;-5.29;100.00;94730.78;4965462;28;20052;-56
2023/01/19 08:33:24;;;;;;;17.60;8.32;;;0.90;65.80;;;-5.19;100.00;94735.66;4968997;28;20062;-53
2023/01/19 08:35:53;;;;;;;17.17;9.27;;;1.00;65.60;;;-5.11;100.00;94730.28;4968932;28;20098;-53
2023/01/19 08:38:19;;;;;;;14.15;7.22;;;1.20;65.40;;;-4.98;100.00;94730.41;4936210;28;20057;-57
2023/01/19 08:40:45;;;;;;;16.48;8.43;;;1.40;65.20;;;-4.90;100.00;94743.25;4970378;28;20026;-58
2023/01/19 08:43:19;;;;;;;14.68;8.13;;;1.50;65.00;;;-4.81;100.00;94743.91;4982625;28;20085;-55
2023/01/19 08:45:51;;;;;;;17.33;8.30;;;1.60;64.80;;;-4.72;100.00;94744.56;4970692;28;20526;-55
2023/01/19 08:48:22;;;;;;;16.50;9.25;;;1.70;64.60;;;-4.64;100.00;94749.59;4969879;28;20445;-53
2023/01/19 08:50:53;;;;;;;16.38;9.02;;;1.80;64.50;;;-4.54;100.00;94749.28;4959036;28;20026;-51
2023/01/19 08:53:21;;;;;;;15.77;8.30;;;2.00;64.50;;;-4.46;100.00;94749.91;4983804;28;20440;-56
2023/01/19 08:55:48;;;;;;;17.63;8.20;;;2.20;64.60;;;-4.37;100.00;94749.78;4972380;28;20091;-58
2023/01/19 08:58:16;;;;;;;14.75;7.80;;;2.30;64.60;;;-4.26;100.00;94752.66;4954378;28;20038;-55
2023/01/19 09:00:42;;;;;;;12.15;7.03;;;2.40;64.50;;;-4.12;100.00;94761.28;4971540;28;20560;-55
2023/01/19 09:03:12;;;;;;;18.70;8.43;;;2.50;64.40;;;-4.00;100.00;94749.34;4956883;28;20076;-56
2023/01/19 09:05:39;;;;;;;15.50;7.88;;;2.60;64.20;;;-3.90;99.90;94746.38;4990210;28;20033;-51
2023/01/19 09:08:14;;;;;;;13.07;7.90;;;2.70;64.20;;;-3.82;98.58;94758.44;4962071;28;20018;-56
2023/01/19 09:10:50;;;;;;;12.63;7.75;;;2.80;63.90;;;-3.82;98.10;94759.22;4990612;28;20030;-55
2023/01/19 09:13:19;;;;;;;14.93;7.63;;;2.90;63.60;;;-3.77;97.78;94751.59;4988901;28;20036;-54
2023/01/19 09:15:46;;;;;;;14.50;7.55;;;2.90;63.50;;;-3.70;97.37;94756.03;4989343;28;20485;-56
2023/01/19 09:18:21;;;;;;;12.98;8.32;;;3.00;63.30;;;-3.66;96.07;94752.84;4972358;28;20472;-56
2023/01/19 09:20:49;;;;;;;12.35;7.43;;;3.10;63.00;;;-3.61;95.89;94749.66;4988916;28;20030;-50
2023/01/19 09:23:19;;;;;;;13.05;7.47;;;3.20;62.90;;;-3.46;95.56;94750.28;4990282;28;20041;-56
2023/01/19 09:25:58;;;;;;;11.43;7.22;;;3.40;62.60;;;-3.20;95.12;94753.94;4990741;28;20040;-52
2023/01/19 09:28:25;;;;;;;12.45;6.93;;;3.90;62.30;;;-2.86;94.62;94760.75;4985669;28;20033;-56
2023/01/19 09:30:52;;;;;;;10.98;6.53;;;4.50;61.80;;;-2.46;93.81;94758.91;4969159;28;20022;-52
2023/01/19 09:33:22;;;;;;;12.52;6.93;;;5.30;61.20;;;-1.98;92.72;94748.13;4990528;28;20053;-54
2023/01/19 09:35:50;;;;;;;11.50;5.78;;;6.00;60.30;;;-1.57;90.32;94751.38;4989620;28;20049;-56
2023/01/19 09:38:18;;;;;;;8.35;5.65;;;6.80;59.50;;;-1.19;87.36;94754.78;4972931;28;20076;-58
2023/01/19 09:40:54;;;;;;;8.77;5.78;;;7.50;58.70;;;-0.70;83.82;94749.75;4990008;28;20578;-56
2023/01/19 09:43:22;;;;;;;11.68;5.38;;;8.40;57.90;;;-0.18;79.54;94752.09;4984688;28;20038;-58
2023/01/19 09:45:58;;;;;;;10.27;6.15;;;9.20;57.00;;;0.31;76.19;94751.13;4976907;28;20021;-57
2023/01/19 09:48:56;;;;;;;8.38;5.78;;;10.20;56.50;;;0.89;73.18;94750.56;4988100;28;20036;-59
2023/01/19 09:51:49;;;;;;;6.47;5.18;;;11.30;54.60;;;1.32;69.67;94753.94;4972616;28;20022;-54
2023/01/19 09:54:34;;;;;;;7.10;5.33;;;12.10;53.10;;;1.87;68.16;94750.97;4978350;28;20034;-58
2023/01/19 09:57:01;;;;;;;10.15;6.20;;;12.80;51.80;;;2.17;66.20;94745.56;4987887;28;20080;-59
2023/01/19 09:59:32;;;;;;;7.43;6.25;;;13.30;50.80;;;2.57;65.57;94747.41;4971537;28;20068;-57
2023/01/19 10:02:54;;;;;;;10.27;6.90;;;13.90;49.80;;;2.92;63.61;94738.53;4977851;28;20081;-58
2023/01/19 10:05:54;;;;;;;8.63;5.80;;;14.50;48.70;;;3.27;62.67;94734.91;4938106;28;20438;-55
2023/01/19 10:08:50;;;;;;;8.77;6.68;;;15.00;47.80;;;3.65;61.42;94734.16;4949282;28;20113;-58
2023/01/19 10:12:09;;;;;;;9.55;6.22;;;15.50;47.20;;;3.91;58.75;94732.69;4948137;28;20066;-58
2023/01/19 10:15:36;;;;;;;8.68;6.57;;;16.00;46.40;;;3.93;57.36;94731.41;4960523;28;20058;-55
2023/01/19 10:18:10;;;;;;;7.63;6.15;;;16.50;45.30;;;3.86;58.13;94730.00;4927571;28;20051;-54
2023/01/19 10:21:10;;;;;;;8.60;6.20;;;16.80;44.80;;;4.18;58.37;94741.47;4929368;28;20038;-56
2023/01/19 10:24:02;;;;;;;7.60;6.53;;;17.20;43.80;;;4.56;56.11;94737.16;4948246;28;20035;-56
2023/01/19 10:26:44;;;;;;;8.50;6.68;;;17.50;43.00;;;4.66;55.87;94738.31;4945713;28;20022;-58
2023/01/19 10:29:36;;;;;;;13.45;7.93;;;17.70;42.20;;;4.71;55.54;94736.53;4965357;28;20034;-55
2023/01/19 10:32:29;;;;;;;8.38;6.55;;;17.80;41.50;;;5.03;54.51;94733.16;4945002;28;20512;-55
2023/01/19 10:34:58;;;;;;;9.52;6.90;;;17.90;41.50;;;4.56;54.47;94728.47;4951048;28;20026;-58
2023/01/19 10:37:26;;;;;;;8.23;6.93;;;17.70;41.60;;;4.45;54.63;94732.03;4949178;28;20113;-58
2023/01/19 10:40:07;;;;;;;11.00;7.20;;;17.60;41.10;;;4.57;57.33;94730.06;4950500;28;20041;-59
2023/01/19 10:42:35;;;;;;;9.95;7.18;;;17.60;40.80;;;4.89;55.68;94735.41;4941264;28;20054;-54
2023/01/19 10:45:01;;;;;;;10.10;7.30;;;17.90;40.90;;;5.18;53.70;94735.94;4962238;28;20054;-55